sensor_id;sensor_type;location;lat;lon;timestamp;P1;durP1;ratioP1;P2;durP2;ratioP2
75171;SDS011;63750;52.418;20.742;2023-04-04T00:00:53;7.40;;;5.60;;
75171;SDS011;63750;52.418;20.742;2023-04-04T00:03:21;9.10;;;6.00;;
75171;SDS011;63750;52.418;20.742;2023-04-04T00:05:50;6.40;;;5.80;;
75171;SDS011;63750;52.418;20.742;2023-04-04T00:08:18;8.90;;;6.10;;
75171;SDS011;63750;52.418;20.742;2023-04-04T00:10:47;6.80;;;5.30;;
75171;SDS011;63750;52.418;20.742;2023-04-04T00:13:15;12.60;;;5.70;;
75171;SDS011;63750;52.418;20.742;2023-04-04T00:15:44;8.30;;;5.90;;
75171;SDS011;63750;52.418;20.742;2023-04-04T00:18:12;6.60;;;5.80;;
75171;SDS011;63750;52.418;20.742;2023-04-04T00:20:41;7.90;;;5.40;;
75171;SDS011;63750;52.418;20.742;2023-04-04T00:23:09;7.80;;;5.50;;
75171;SDS011;63750;52.418;20.742;2023-04-04T00:25:38;8.10;;;5.90;;
75171;SDS011;63750;52.418;20.742;2023-04-04T00:28:06;9.20;;;5.70;;
75171;SDS011;63750;52.418;20.742;2023-04-04T00:30:34;8.60;;;5.80;;
75171;SDS011;63750;52.418;20.742;2023-04-04T00:33:03;7.40;;;5.60;;
75171;SDS011;63750;52.418;20.742;2023-04-04T00:35:31;8.90;;;5.30;;
75171;SDS011;63750;52.418;20.742;2023-04-04T00:38:00;7.60;;;5.30;;
75171;SDS011;63750;52.418;20.742;2023-04-04T00:40:29;8.10;;;5.80;;
75171;SDS011;63750;52.418;20.742;2023-04-04T00:42:57;7.50;;;5.00;;
75171;SDS011;63750;52.418;20.742;2023-04-04T00:45:26;8.50;;;5.40;;
75171;SDS011;63750;52.418;20.742;2023-04-04T00:47:55;6.50;;;5.40;;
75171;SDS011;63750;52.418;20.742;2023-04-04T00:50:24;7.90;;;5.20;;
75171;SDS011;63750;52.418;20.742;2023-04-04T00:52:53;7.50;;;5.40;;
75171;SDS011;63750;52.418;20.742;2023-04-04T00:55:22;8.20;;;5.30;;
75171;SDS011;63750;52.418;20.742;2023-04-04T00:57:51;7.30;;;5.10;;
75171;SDS011;63750;52.418;20.742;2023-04-04T01:00:20;8.10;;;5.20;;
75171;SDS011;63750;52.418;20.742;2023-04-04T01:02:48;6.80;;;4.90;;
75171;SDS011;63750;52.418;20.742;2023-04-04T01:05:17;8.00;;;5.20;;
75171;SDS011;63750;52.418;20.742;2023-04-04T01:07:46;8.00;;;5.30;;
75171;SDS011;63750;52.418;20.742;2023-04-04T01:10:14;7.90;;;4.60;;
75171;SDS011;63750;52.418;20.742;2023-04-04T01:12:43;6.50;;;4.80;;
75171;SDS011;63750;52.418;20.742;2023-04-04T01:15:12;9.80;;;5.30;;
75171;SDS011;63750;52.418;20.742;2023-04-04T01:17:40;8.10;;;5.30;;
75171;SDS011;63750;52.418;20.742;2023-04-04T01:20:10;8.20;;;5.20;;
75171;SDS011;63750;52.418;20.742;2023-04-04T01:22:41;6.70;;;5.10;;
75171;SDS011;63750;52.418;20.742;2023-04-04T01:25:11;6.60;;;5.50;;
75171;SDS011;63750;52.418;20.742;2023-04-04T01:27:43;7.30;;;5.00;;
75171;SDS011;63750;52.418;20.742;2023-04-04T01:30:12;10.50;;;5.50;;
75171;SDS011;63750;52.418;20.742;2023-04-04T01:32:43;8.00;;;5.20;;
75171;SDS011;63750;52.418;20.742;2023-04-04T01:35:20;7.40;;;5.00;;
75171;SDS011;63750;52.418;20.742;2023-04-04T01:37:55;5.30;;;4.80;;
75171;SDS011;63750;52.418;20.742;2023-04-04T01:40:31;7.20;;;5.30;;
75171;SDS011;63750;52.418;20.742;2023-04-04T01:43:01;6.90;;;5.30;;
75171;SDS011;63750;52.418;20.742;2023-04-04T01:45:30;7.10;;;5.00;;
75171;SDS011;63750;52.418;20.742;2023-04-04T01:47:59;6.40;;;4.90;;
75171;SDS011;63750;52.418;20.742;2023-04-04T01:50:28;7.50;;;4.90;;
75171;SDS011;63750;52.418;20.742;2023-04-04T01:52:56;6.40;;;4.60;;
75171;SDS011;63750;52.418;20.742;2023-04-04T01:55:25;8.20;;;4.90;;
75171;SDS011;63750;52.418;20.742;2023-04-04T01:57:53;7.10;;;5.50;;
75171;SDS011;63750;52.418;20.742;2023-04-04T02:00:21;6.70;;;5.40;;
75171;SDS011;63750;52.418;20.742;2023-04-04T02:02:50;7.70;;;5.40;;
75171;SDS011;63750;52.418;20.742;2023-04-04T02:05:18;9.10;;;5.20;;
75171;SDS011;63750;52.418;20.742;2023-04-04T02:07:47;7.00;;;5.50;;
75171;SDS011;63750;52.418;20.742;2023-04-04T02:10:16;6.70;;;5.20;;
75171;SDS011;63750;52.418;20.742;2023-04-04T02:12:44;8.40;;;6.00;;
75171;SDS011;63750;52.418;20.742;2023-04-04T02:15:13;6.10;;;5.10;;
75171;SDS011;63750;52.418;20.742;2023-04-04T02:17:47;10.90;;;5.40;;
75171;SDS011;63750;52.418;20.742;2023-04-04T02:20:16;7.60;;;5.20;;
75171;SDS011;63750;52.418;20.742;2023-04-04T02:22:50;7.20;;;5.30;;
75171;SDS011;63750;52.418;20.742;2023-04-04T02:25:19;8.00;;;5.60;;
75171;SDS011;63750;52.418;20.742;2023-04-04T02:27:48;7.00;;;5.10;;
75171;SDS011;63750;52.418;20.742;2023-04-04T02:30:16;7.40;;;5.60;;
75171;SDS011;63750;52.418;20.742;2023-04-04T02:32:45;6.40;;;5.10;;
75171;SDS011;63750;52.418;20.742;2023-04-04T02:35:13;8.30;;;5.20;;
75171;SDS011;63750;52.418;20.742;2023-04-04T02:37:44;8.40;;;5.70;;
75171;SDS011;63750;52.418;20.742;2023-04-04T02:40:13;8.90;;;5.10;;
75171;SDS011;63750;52.418;20.742;2023-04-04T02:42:42;9.40;;;5.90;;
75171;SDS011;63750;52.418;20.742;2023-04-04T02:45:11;6.20;;;5.10;;
75171;SDS011;63750;52.418;20.742;2023-04-04T02:47:40;10.20;;;5.90;;
75171;SDS011;63750;52.418;20.742;2023-04-04T02:50:15;7.40;;;5.30;;
75171;SDS011;63750;52.418;20.742;2023-04-04T02:52:44;7.60;;;5.40;;
75171;SDS011;63750;52.418;20.742;2023-04-04T02:55:12;8.20;;;5.20;;
75171;SDS011;63750;52.418;20.742;2023-04-04T02:57:42;6.90;;;5.10;;
75171;SDS011;63750;52.418;20.742;2023-04-04T03:00:16;5.80;;;5.20;;
75171;SDS011;63750;52.418;20.742;2023-04-04T03:02:49;6.20;;;5.00;;
75171;SDS011;63750;52.418;20.742;2023-04-04T03:05:20;7.30;;;4.90;;
75171;SDS011;63750;52.418;20.742;2023-04-04T03:07:49;7.10;;;4.80;;
75171;SDS011;63750;52.418;20.742;2023-04-04T03:10:20;6.00;;;4.80;;
75171;SDS011;63750;52.418;20.742;2023-04-04T03:12:49;7.70;;;5.30;;
75171;SDS011;63750;52.418;20.742;2023-04-04T03:15:18;8.10;;;5.10;;
75171;SDS011;63750;52.418;20.742;2023-04-04T03:17:46;6.80;;;5.00;;
75171;SDS011;63750;52.418;20.742;2023-04-04T03:20:17;7.30;;;5.30;;
75171;SDS011;63750;52.418;20.742;2023-04-04T03:22:45;8.60;;;5.40;;
75171;SDS011;63750;52.418;20.742;2023-04-04T03:25:14;11.50;;;5.20;;
75171;SDS011;63750;52.418;20.742;2023-04-04T03:27:43;8.70;;;6.00;;
75171;SDS011;63750;52.418;20.742;2023-04-04T03:30:11;8.40;;;5.80;;
75171;SDS011;63750;52.418;20.742;2023-04-04T03:32:40;10.70;;;6.00;;
75171;SDS011;63750;52.418;20.742;2023-04-04T03:35:09;9.70;;;5.60;;
75171;SDS011;63750;52.418;20.742;2023-04-04T03:37:37;9.10;;;6.50;;
75171;SDS011;63750;52.418;20.742;2023-04-04T03:40:07;8.70;;;6.10;;
75171;SDS011;63750;52.418;20.742;2023-04-04T03:42:36;11.20;;;6.00;;
75171;SDS011;63750;52.418;20.742;2023-04-04T03:45:05;9.80;;;6.10;;
75171;SDS011;63750;52.418;20.742;2023-04-04T03:47:35;9.20;;;5.80;;
75171;SDS011;63750;52.418;20.742;2023-04-04T03:50:04;7.10;;;5.10;;
75171;SDS011;63750;52.418;20.742;2023-04-04T03:52:37;7.70;;;5.20;;
75171;SDS011;63750;52.418;20.742;2023-04-04T03:55:06;7.30;;;5.60;;
75171;SDS011;63750;52.418;20.742;2023-04-04T03:57:35;7.10;;;5.40;;
75171;SDS011;63750;52.418;20.742;2023-04-04T04:00:04;7.60;;;5.70;;
75171;SDS011;63750;52.418;20.742;2023-04-04T04:02:34;8.40;;;5.30;;
75171;SDS011;63750;52.418;20.742;2023-04-04T04:05:03;8.00;;;5.20;;
75171;SDS011;63750;52.418;20.742;2023-04-04T04:07:32;7.90;;;5.20;;
75171;SDS011;63750;52.418;20.742;2023-04-04T04:10:00;8.10;;;6.10;;
75171;SDS011;63750;52.418;20.742;2023-04-04T04:12:29;10.90;;;6.70;;
75171;SDS011;63750;52.418;20.742;2023-04-04T04:14:57;9.10;;;5.90;;
75171;SDS011;63750;52.418;20.742;2023-04-04T04:17:26;9.20;;;6.30;;
75171;SDS011;63750;52.418;20.742;2023-04-04T04:19:54;7.30;;;5.80;;
75171;SDS011;63750;52.418;20.742;2023-04-04T04:22:23;10.60;;;6.40;;
75171;SDS011;63750;52.418;20.742;2023-04-04T04:24:51;7.90;;;5.70;;
75171;SDS011;63750;52.418;20.742;2023-04-04T04:27:20;7.80;;;5.50;;
75171;SDS011;63750;52.418;20.742;2023-04-04T04:29:48;10.30;;;6.00;;
75171;SDS011;63750;52.418;20.742;2023-04-04T04:32:17;9.90;;;6.00;;
75171;SDS011;63750;52.418;20.742;2023-04-04T04:34:45;8.10;;;6.20;;
75171;SDS011;63750;52.418;20.742;2023-04-04T04:37:14;8.10;;;6.80;;
75171;SDS011;63750;52.418;20.742;2023-04-04T04:39:42;8.10;;;6.50;;
75171;SDS011;63750;52.418;20.742;2023-04-04T04:42:11;7.90;;;6.50;;
75171;SDS011;63750;52.418;20.742;2023-04-04T04:44:39;12.00;;;6.70;;
75171;SDS011;63750;52.418;20.742;2023-04-04T04:47:08;11.10;;;7.10;;
75171;SDS011;63750;52.418;20.742;2023-04-04T04:49:36;8.70;;;7.10;;
75171;SDS011;63750;52.418;20.742;2023-04-04T04:52:05;10.80;;;7.50;;
75171;SDS011;63750;52.418;20.742;2023-04-04T04:54:34;10.30;;;7.00;;
75171;SDS011;63750;52.418;20.742;2023-04-04T04:57:02;9.30;;;7.00;;
75171;SDS011;63750;52.418;20.742;2023-04-04T04:59:31;8.00;;;6.60;;
75171;SDS011;63750;52.418;20.742;2023-04-04T05:01:59;10.30;;;7.20;;
75171;SDS011;63750;52.418;20.742;2023-04-04T05:04:28;8.70;;;6.10;;
75171;SDS011;63750;52.418;20.742;2023-04-04T05:06:56;12.20;;;6.30;;
75171;SDS011;63750;52.418;20.742;2023-04-04T05:09:25;7.00;;;5.80;;
75171;SDS011;63750;52.418;20.742;2023-04-04T05:11:53;7.40;;;5.60;;
75171;SDS011;63750;52.418;20.742;2023-04-04T05:14:22;7.00;;;5.90;;
75171;SDS011;63750;52.418;20.742;2023-04-04T05:16:51;9.60;;;6.20;;
75171;SDS011;63750;52.418;20.742;2023-04-04T05:19:19;9.50;;;7.00;;
75171;SDS011;63750;52.418;20.742;2023-04-04T05:21:47;10.00;;;6.10;;
75171;SDS011;63750;52.418;20.742;2023-04-04T05:24:16;10.20;;;5.90;;
75171;SDS011;63750;52.418;20.742;2023-04-04T05:26:44;8.20;;;5.20;;
75171;SDS011;63750;52.418;20.742;2023-04-04T05:29:12;8.70;;;5.40;;
75171;SDS011;63750;52.418;20.742;2023-04-04T05:31:41;10.30;;;5.80;;
75171;SDS011;63750;52.418;20.742;2023-04-04T05:34:09;8.30;;;5.30;;
75171;SDS011;63750;52.418;20.742;2023-04-04T05:36:37;8.10;;;5.90;;
75171;SDS011;63750;52.418;20.742;2023-04-04T05:39:05;8.40;;;5.90;;
75171;SDS011;63750;52.418;20.742;2023-04-04T05:41:34;10.10;;;5.80;;
75171;SDS011;63750;52.418;20.742;2023-04-04T05:44:02;9.20;;;5.60;;
75171;SDS011;63750;52.418;20.742;2023-04-04T05:46:31;8.50;;;4.90;;
75171;SDS011;63750;52.418;20.742;2023-04-04T05:48:59;6.50;;;4.80;;
75171;SDS011;63750;52.418;20.742;2023-04-04T05:51:28;8.60;;;5.60;;
75171;SDS011;63750;52.418;20.742;2023-04-04T05:53:56;8.60;;;5.30;;
75171;SDS011;63750;52.418;20.742;2023-04-04T05:56:24;8.90;;;5.30;;
75171;SDS011;63750;52.418;20.742;2023-04-04T05:58:53;9.20;;;5.20;;
75171;SDS011;63750;52.418;20.742;2023-04-04T06:01:21;8.30;;;5.50;;
75171;SDS011;63750;52.418;20.742;2023-04-04T06:03:49;8.10;;;5.10;;
75171;SDS011;63750;52.418;20.742;2023-04-04T06:06:17;6.20;;;4.30;;
75171;SDS011;63750;52.418;20.742;2023-04-04T06:08:46;7.40;;;5.60;;
75171;SDS011;63750;52.418;20.742;2023-04-04T06:11:14;8.40;;;5.00;;
75171;SDS011;63750;52.418;20.742;2023-04-04T06:13:42;7.30;;;5.50;;
75171;SDS011;63750;52.418;20.742;2023-04-04T06:16:11;9.20;;;5.40;;
75171;SDS011;63750;52.418;20.742;2023-04-04T06:18:39;8.40;;;5.40;;
75171;SDS011;63750;52.418;20.742;2023-04-04T06:21:08;8.10;;;5.90;;
75171;SDS011;63750;52.418;20.742;2023-04-04T06:23:36;7.40;;;5.50;;
75171;SDS011;63750;52.418;20.742;2023-04-04T06:26:04;9.70;;;5.50;;
75171;SDS011;63750;52.418;20.742;2023-04-04T06:28:33;6.70;;;5.40;;
75171;SDS011;63750;52.418;20.742;2023-04-04T06:31:01;11.60;;;5.10;;
75171;SDS011;63750;52.418;20.742;2023-04-04T06:33:32;7.10;;;5.00;;
75171;SDS011;63750;52.418;20.742;2023-04-04T06:36:01;7.70;;;5.10;;
75171;SDS011;63750;52.418;20.742;2023-04-04T06:38:29;9.80;;;6.30;;
75171;SDS011;63750;52.418;20.742;2023-04-04T06:40:57;9.10;;;5.40;;
75171;SDS011;63750;52.418;20.742;2023-04-04T06:43:26;9.40;;;5.70;;
75171;SDS011;63750;52.418;20.742;2023-04-04T06:45:54;8.00;;;5.40;;
75171;SDS011;63750;52.418;20.742;2023-04-04T06:48:22;9.60;;;5.10;;
75171;SDS011;63750;52.418;20.742;2023-04-04T06:50:51;9.40;;;5.80;;
75171;SDS011;63750;52.418;20.742;2023-04-04T06:53:19;9.10;;;6.00;;
75171;SDS011;63750;52.418;20.742;2023-04-04T06:55:47;7.40;;;5.70;;
75171;SDS011;63750;52.418;20.742;2023-04-04T06:58:16;7.00;;;5.40;;
75171;SDS011;63750;52.418;20.742;2023-04-04T07:00:44;11.70;;;5.90;;
75171;SDS011;63750;52.418;20.742;2023-04-04T07:03:12;7.30;;;5.60;;
75171;SDS011;63750;52.418;20.742;2023-04-04T07:05:41;8.50;;;5.50;;
75171;SDS011;63750;52.418;20.742;2023-04-04T07:08:09;7.90;;;5.10;;
75171;SDS011;63750;52.418;20.742;2023-04-04T07:10:37;8.50;;;5.50;;
75171;SDS011;63750;52.418;20.742;2023-04-04T07:13:06;9.00;;;5.40;;
75171;SDS011;63750;52.418;20.742;2023-04-04T07:15:34;7.60;;;5.40;;
75171;SDS011;63750;52.418;20.742;2023-04-04T07:18:03;8.20;;;5.30;;
75171;SDS011;63750;52.418;20.742;2023-04-04T07:20:31;9.90;;;5.80;;
75171;SDS011;63750;52.418;20.742;2023-04-04T07:22:59;10.50;;;6.20;;
75171;SDS011;63750;52.418;20.742;2023-04-04T07:25:27;8.10;;;5.90;;
75171;SDS011;63750;52.418;20.742;2023-04-04T07:27:56;11.30;;;5.90;;
75171;SDS011;63750;52.418;20.742;2023-04-04T07:30:24;9.60;;;5.70;;
75171;SDS011;63750;52.418;20.742;2023-04-04T07:32:56;9.10;;;6.70;;
75171;SDS011;63750;52.418;20.742;2023-04-04T07:35:25;13.20;;;6.30;;
75171;SDS011;63750;52.418;20.742;2023-04-04T07:37:53;12.60;;;5.80;;
75171;SDS011;63750;52.418;20.742;2023-04-04T07:40:22;9.50;;;6.00;;
75171;SDS011;63750;52.418;20.742;2023-04-04T07:42:50;6.60;;;5.60;;
75171;SDS011;63750;52.418;20.742;2023-04-04T07:45:19;8.50;;;5.50;;
75171;SDS011;63750;52.418;20.742;2023-04-04T07:47:47;8.40;;;5.60;;
75171;SDS011;63750;52.418;20.742;2023-04-04T07:50:16;10.20;;;5.60;;
75171;SDS011;63750;52.418;20.742;2023-04-04T07:52:48;5.90;;;5.30;;
75171;SDS011;63750;52.418;20.742;2023-04-04T07:55:17;6.70;;;5.30;;
75171;SDS011;63750;52.418;20.742;2023-04-04T07:57:46;10.10;;;5.50;;
75171;SDS011;63750;52.418;20.742;2023-04-04T08:00:15;7.40;;;5.60;;
75171;SDS011;63750;52.418;20.742;2023-04-04T08:02:44;8.10;;;5.30;;
75171;SDS011;63750;52.418;20.742;2023-04-04T08:05:12;9.90;;;6.30;;
75171;SDS011;63750;52.418;20.742;2023-04-04T08:07:42;9.80;;;5.90;;
75171;SDS011;63750;52.418;20.742;2023-04-04T08:10:10;9.80;;;5.90;;
75171;SDS011;63750;52.418;20.742;2023-04-04T08:12:39;6.40;;;5.30;;
75171;SDS011;63750;52.418;20.742;2023-04-04T08:15:08;6.50;;;5.20;;
75171;SDS011;63750;52.418;20.742;2023-04-04T08:17:38;7.70;;;5.40;;
75171;SDS011;63750;52.418;20.742;2023-04-04T08:20:07;6.50;;;5.30;;
75171;SDS011;63750;52.418;20.742;2023-04-04T08:22:36;10.00;;;5.50;;
75171;SDS011;63750;52.418;20.742;2023-04-04T08:25:06;8.70;;;4.50;;
75171;SDS011;63750;52.418;20.742;2023-04-04T08:27:35;6.90;;;4.20;;
75171;SDS011;63750;52.418;20.742;2023-04-04T08:30:07;5.30;;;4.30;;
75171;SDS011;63750;52.418;20.742;2023-04-04T08:32:37;7.00;;;4.80;;
75171;SDS011;63750;52.418;20.742;2023-04-04T08:35:06;6.50;;;4.80;;
75171;SDS011;63750;52.418;20.742;2023-04-04T08:37:34;5.90;;;4.50;;
75171;SDS011;63750;52.418;20.742;2023-04-04T08:40:04;6.60;;;4.70;;
75171;SDS011;63750;52.418;20.742;2023-04-04T08:42:34;6.10;;;4.70;;
75171;SDS011;63750;52.418;20.742;2023-04-04T08:45:06;8.00;;;5.10;;
75171;SDS011;63750;52.418;20.742;2023-04-04T08:47:36;5.70;;;4.40;;
75171;SDS011;63750;52.418;20.742;2023-04-04T08:50:07;8.00;;;4.10;;
75171;SDS011;63750;52.418;20.742;2023-04-04T08:52:36;5.90;;;3.70;;
75171;SDS011;63750;52.418;20.742;2023-04-04T08:55:07;6.00;;;3.90;;
75171;SDS011;63750;52.418;20.742;2023-04-04T08:57:36;5.50;;;3.60;;
75171;SDS011;63750;52.418;20.742;2023-04-04T09:00:06;5.50;;;3.90;;
75171;SDS011;63750;52.418;20.742;2023-04-04T09:02:39;4.70;;;3.20;;
75171;SDS011;63750;52.418;20.742;2023-04-04T09:05:15;5.20;;;3.50;;
75171;SDS011;63750;52.418;20.742;2023-04-04T09:07:45;5.70;;;3.20;;
75171;SDS011;63750;52.418;20.742;2023-04-04T09:10:16;4.00;;;2.70;;
75171;SDS011;63750;52.418;20.742;2023-04-04T09:12:44;4.50;;;2.70;;
75171;SDS011;63750;52.418;20.742;2023-04-04T09:15:15;5.70;;;2.90;;
75171;SDS011;63750;52.418;20.742;2023-04-04T09:17:44;5.90;;;3.60;;
75171;SDS011;63750;52.418;20.742;2023-04-04T09:23:06;4.80;;;3.70;;
75171;SDS011;63750;52.418;20.742;2023-04-04T09:25:36;5.60;;;2.80;;
75171;SDS011;63750;52.418;20.742;2023-04-04T09:28:08;4.20;;;3.10;;
75171;SDS011;63750;52.418;20.742;2023-04-04T09:30:37;4.20;;;3.00;;
75171;SDS011;63750;52.418;20.742;2023-04-04T09:33:05;3.20;;;2.80;;
75171;SDS011;63750;52.418;20.742;2023-04-04T09:35:35;5.30;;;3.10;;
75171;SDS011;63750;52.418;20.742;2023-04-04T09:38:04;4.50;;;3.10;;
75171;SDS011;63750;52.418;20.742;2023-04-04T09:40:33;4.70;;;3.20;;
75171;SDS011;63750;52.418;20.742;2023-04-04T09:43:02;5.00;;;2.90;;
75171;SDS011;63750;52.418;20.742;2023-04-04T09:45:34;3.00;;;2.70;;
75171;SDS011;63750;52.418;20.742;2023-04-04T09:48:05;3.70;;;3.00;;
75171;SDS011;63750;52.418;20.742;2023-04-04T09:50:34;5.30;;;3.10;;
75171;SDS011;63750;52.418;20.742;2023-04-04T09:53:03;5.60;;;3.20;;
75171;SDS011;63750;52.418;20.742;2023-04-04T09:55:32;4.70;;;3.00;;
75171;SDS011;63750;52.418;20.742;2023-04-04T09:58:09;3.70;;;2.80;;
75171;SDS011;63750;52.418;20.742;2023-04-04T10:00:40;3.50;;;3.20;;
75171;SDS011;63750;52.418;20.742;2023-04-04T10:03:13;3.30;;;3.00;;
75171;SDS011;63750;52.418;20.742;2023-04-04T10:05:43;4.40;;;2.90;;
75171;SDS011;63750;52.418;20.742;2023-04-04T10:08:16;6.00;;;3.50;;
75171;SDS011;63750;52.418;20.742;2023-04-04T10:10:48;5.30;;;3.40;;
75171;SDS011;63750;52.418;20.742;2023-04-04T10:13:23;4.30;;;3.00;;
75171;SDS011;63750;52.418;20.742;2023-04-04T10:15:53;3.70;;;3.40;;
75171;SDS011;63750;52.418;20.742;2023-04-04T10:18:23;4.50;;;2.80;;
75171;SDS011;63750;52.418;20.742;2023-04-04T10:20:53;4.00;;;3.00;;
75171;SDS011;63750;52.418;20.742;2023-04-04T10:23:23;4.30;;;3.10;;
75171;SDS011;63750;52.418;20.742;2023-04-04T10:25:52;3.60;;;2.50;;
75171;SDS011;63750;52.418;20.742;2023-04-04T10:28:21;3.60;;;2.50;;
75171;SDS011;63750;52.418;20.742;2023-04-04T10:30:51;3.10;;;2.80;;
75171;SDS011;63750;52.418;20.742;2023-04-04T10:33:29;7.10;;;3.30;;
75171;SDS011;63750;52.418;20.742;2023-04-04T10:36:04;3.50;;;3.10;;
75171;SDS011;63750;52.418;20.742;2023-04-04T10:38:37;4.90;;;3.40;;
75171;SDS011;63750;52.418;20.742;2023-04-04T10:41:08;4.10;;;3.10;;
75171;SDS011;63750;52.418;20.742;2023-04-04T10:43:39;3.50;;;2.80;;
75171;SDS011;63750;52.418;20.742;2023-04-04T10:46:12;4.10;;;2.60;;
75171;SDS011;63750;52.418;20.742;2023-04-04T10:48:44;3.80;;;2.90;;
75171;SDS011;63750;52.418;20.742;2023-04-04T10:51:13;3.40;;;2.70;;
75171;SDS011;63750;52.418;20.742;2023-04-04T10:53:42;4.80;;;3.10;;
75171;SDS011;63750;52.418;20.742;2023-04-04T10:56:10;4.90;;;3.20;;
75171;SDS011;63750;52.418;20.742;2023-04-04T10:58:39;3.40;;;3.10;;
75171;SDS011;63750;52.418;20.742;2023-04-04T11:01:08;4.60;;;3.60;;
75171;SDS011;63750;52.418;20.742;2023-04-04T11:09:51;5.60;;;3.50;;
75171;SDS011;63750;52.418;20.742;2023-04-04T11:12:25;5.70;;;3.50;;
75171;SDS011;63750;52.418;20.742;2023-04-04T11:15:06;5.80;;;3.20;;
75171;SDS011;63750;52.418;20.742;2023-04-04T11:20:27;5.10;;;3.50;;
75171;SDS011;63750;52.418;20.742;2023-04-04T11:23:04;6.10;;;3.50;;
75171;SDS011;63750;52.418;20.742;2023-04-04T11:25:40;3.20;;;2.90;;
75171;SDS011;63750;52.418;20.742;2023-04-04T11:28:23;3.40;;;3.10;;
75171;SDS011;63750;52.418;20.742;2023-04-04T11:33:57;4.20;;;3.00;;
75171;SDS011;63750;52.418;20.742;2023-04-04T11:39:27;4.90;;;4.10;;
75171;SDS011;63750;52.418;20.742;2023-04-04T11:41:59;4.70;;;3.60;;
75171;SDS011;63750;52.418;20.742;2023-04-04T11:44:31;4.20;;;3.50;;
75171;SDS011;63750;52.418;20.742;2023-04-04T11:47:09;3.80;;;3.40;;
75171;SDS011;63750;52.418;20.742;2023-04-04T11:49:38;6.40;;;3.70;;
75171;SDS011;63750;52.418;20.742;2023-04-04T11:52:08;5.10;;;3.70;;
75171;SDS011;63750;52.418;20.742;2023-04-04T11:54:39;7.40;;;4.10;;
75171;SDS011;63750;52.418;20.742;2023-04-04T11:57:09;4.60;;;3.70;;
75171;SDS011;63750;52.418;20.742;2023-04-04T11:59:39;4.90;;;3.60;;
75171;SDS011;63750;52.418;20.742;2023-04-04T12:02:09;6.70;;;4.10;;
75171;SDS011;63750;52.418;20.742;2023-04-04T12:04:38;8.50;;;4.60;;
75171;SDS011;63750;52.418;20.742;2023-04-04T12:07:07;13.20;;;8.00;;
75171;SDS011;63750;52.418;20.742;2023-04-04T12:09:37;13.90;;;7.70;;
75171;SDS011;63750;52.418;20.742;2023-04-04T12:12:06;13.70;;;8.10;;
75171;SDS011;63750;52.418;20.742;2023-04-04T12:14:37;16.70;;;8.90;;
75171;SDS011;63750;52.418;20.742;2023-04-04T12:17:07;13.20;;;8.30;;
75171;SDS011;63750;52.418;20.742;2023-04-04T12:19:36;8.80;;;5.90;;
75171;SDS011;63750;52.418;20.742;2023-04-04T12:22:06;6.20;;;4.70;;
75171;SDS011;63750;52.418;20.742;2023-04-04T12:24:35;6.60;;;4.50;;
75171;SDS011;63750;52.418;20.742;2023-04-04T12:27:04;10.40;;;5.60;;
75171;SDS011;63750;52.418;20.742;2023-04-04T12:29:33;10.30;;;6.10;;
75171;SDS011;63750;52.418;20.742;2023-04-04T12:32:03;7.10;;;4.80;;
75171;SDS011;63750;52.418;20.742;2023-04-04T12:34:32;4.60;;;4.10;;
75171;SDS011;63750;52.418;20.742;2023-04-04T12:37:07;8.70;;;4.70;;
75171;SDS011;63750;52.418;20.742;2023-04-04T12:39:38;5.80;;;4.80;;
75171;SDS011;63750;52.418;20.742;2023-04-04T12:42:18;6.30;;;4.60;;
75171;SDS011;63750;52.418;20.742;2023-04-04T12:44:48;9.40;;;4.70;;
75171;SDS011;63750;52.418;20.742;2023-04-04T12:47:18;6.90;;;5.10;;
75171;SDS011;63750;52.418;20.742;2023-04-04T12:49:46;7.40;;;5.10;;
75171;SDS011;63750;52.418;20.742;2023-04-04T12:52:18;6.30;;;4.80;;
75171;SDS011;63750;52.418;20.742;2023-04-04T12:54:47;6.40;;;4.80;;
75171;SDS011;63750;52.418;20.742;2023-04-04T12:57:18;7.80;;;5.40;;
75171;SDS011;63750;52.418;20.742;2023-04-04T12:59:49;9.40;;;5.50;;
75171;SDS011;63750;52.418;20.742;2023-04-04T13:02:20;7.00;;;4.80;;
75171;SDS011;63750;52.418;20.742;2023-04-04T13:04:52;8.10;;;4.70;;
75171;SDS011;63750;52.418;20.742;2023-04-04T13:07:23;5.10;;;4.00;;
75171;SDS011;63750;52.418;20.742;2023-04-04T13:09:53;8.60;;;5.40;;
75171;SDS011;63750;52.418;20.742;2023-04-04T13:12:25;6.30;;;4.30;;
75171;SDS011;63750;52.418;20.742;2023-04-04T13:15:14;4.80;;;3.90;;
75171;SDS011;63750;52.418;20.742;2023-04-04T13:17:43;4.70;;;3.70;;
75171;SDS011;63750;52.418;20.742;2023-04-04T13:20:12;3.90;;;3.60;;
75171;SDS011;63750;52.418;20.742;2023-04-04T13:22:42;5.90;;;4.20;;
75171;SDS011;63750;52.418;20.742;2023-04-04T13:25:11;6.40;;;4.70;;
75171;SDS011;63750;52.418;20.742;2023-04-04T13:27:39;5.70;;;4.90;;
75171;SDS011;63750;52.418;20.742;2023-04-04T13:30:08;5.40;;;4.10;;
75171;SDS011;63750;52.418;20.742;2023-04-04T13:32:38;4.80;;;4.10;;
75171;SDS011;63750;52.418;20.742;2023-04-04T13:35:07;5.30;;;4.30;;
75171;SDS011;63750;52.418;20.742;2023-04-04T13:37:36;6.00;;;4.60;;
75171;SDS011;63750;52.418;20.742;2023-04-04T13:40:05;4.40;;;3.90;;
75171;SDS011;63750;52.418;20.742;2023-04-04T13:42:35;4.60;;;4.10;;
75171;SDS011;63750;52.418;20.742;2023-04-04T13:45:04;6.30;;;4.40;;
75171;SDS011;63750;52.418;20.742;2023-04-04T13:47:34;6.50;;;4.40;;
75171;SDS011;63750;52.418;20.742;2023-04-04T13:50:03;5.30;;;4.40;;
75171;SDS011;63750;52.418;20.742;2023-04-04T13:52:33;5.70;;;4.50;;
75171;SDS011;63750;52.418;20.742;2023-04-04T13:55:01;7.10;;;4.90;;
75171;SDS011;63750;52.418;20.742;2023-04-04T13:57:30;7.30;;;5.30;;
75171;SDS011;63750;52.418;20.742;2023-04-04T13:59:58;5.30;;;4.80;;
75171;SDS011;63750;52.418;20.742;2023-04-04T14:02:27;4.60;;;4.20;;
75171;SDS011;63750;52.418;20.742;2023-04-04T14:04:56;5.80;;;4.10;;
75171;SDS011;63750;52.418;20.742;2023-04-04T14:07:24;4.90;;;4.00;;
75171;SDS011;63750;52.418;20.742;2023-04-04T14:09:52;4.70;;;4.00;;
75171;SDS011;63750;52.418;20.742;2023-04-04T14:12:21;4.10;;;3.50;;
75171;SDS011;63750;52.418;20.742;2023-04-04T14:14:49;4.20;;;3.60;;
75171;SDS011;63750;52.418;20.742;2023-04-04T14:17:17;5.30;;;3.40;;
75171;SDS011;63750;52.418;20.742;2023-04-04T14:19:45;5.40;;;3.70;;
75171;SDS011;63750;52.418;20.742;2023-04-04T14:22:14;4.90;;;4.00;;
75171;SDS011;63750;52.418;20.742;2023-04-04T14:24:42;5.70;;;4.00;;
75171;SDS011;63750;52.418;20.742;2023-04-04T14:27:10;4.60;;;4.20;;
75171;SDS011;63750;52.418;20.742;2023-04-04T14:29:39;4.70;;;4.00;;
75171;SDS011;63750;52.418;20.742;2023-04-04T14:32:08;5.00;;;3.90;;
75171;SDS011;63750;52.418;20.742;2023-04-04T14:34:36;6.30;;;4.70;;
75171;SDS011;63750;52.418;20.742;2023-04-04T14:37:04;7.00;;;4.20;;
75171;SDS011;63750;52.418;20.742;2023-04-04T14:39:33;4.80;;;4.30;;
75171;SDS011;63750;52.418;20.742;2023-04-04T14:42:01;7.20;;;4.30;;
75171;SDS011;63750;52.418;20.742;2023-04-04T14:44:30;4.80;;;3.80;;
75171;SDS011;63750;52.418;20.742;2023-04-04T14:46:58;5.50;;;4.40;;
75171;SDS011;63750;52.418;20.742;2023-04-04T14:49:26;6.00;;;4.80;;
75171;SDS011;63750;52.418;20.742;2023-04-04T14:51:55;6.30;;;4.70;;
75171;SDS011;63750;52.418;20.742;2023-04-04T14:54:23;6.10;;;4.90;;
75171;SDS011;63750;52.418;20.742;2023-04-04T14:56:51;4.70;;;4.20;;
75171;SDS011;63750;52.418;20.742;2023-04-04T14:59:20;5.20;;;4.30;;
75171;SDS011;63750;52.418;20.742;2023-04-04T15:01:48;6.10;;;4.40;;
75171;SDS011;63750;52.418;20.742;2023-04-04T15:04:16;6.30;;;4.70;;